Time;durP1;ratioP1;P1;durP2;ratioP2;P2;SDS_P1;SDS_P2;PMS_P1;PMS_P2;Temp;Humidity;BMP_temperature;BMP_pressure;BME280_temperature;BME280_humidity;BME280_pressure;Samples;Min_cycle;Max_cycle;Signal;HPM_P1;HPM_P2
2022/11/15 00:03:34;;;;;;;13.07;8.05;;;7.20;99.90;;;;;;21174959;28;20410;-79
2022/11/15 00:13:57;;;;;;;12.93;7.00;;;7.10;99.90;;;;;;21171838;28;20039;-79
2022/11/15 00:24:16;;;;;;;16.35;8.00;;;7.10;99.90;;;;;;21173393;28;20039;-80
2022/11/15 00:34:35;;;;;;;18.38;8.98;;;7.10;99.90;;;;;;21172490;28;20067;-79
2022/11/15 00:44:54;;;;;;;13.02;7.30;;;7.10;99.90;;;;;;21173218;28;20579;-79
2022/11/15 00:55:16;;;;;;;14.32;8.63;;;7.10;99.90;;;;;;21170575;28;20032;-80
2022/11/15 01:05:37;;;;;;;28.00;9.95;;;7.00;99.90;;;;;;21171844;28;20036;-80
2022/11/15 01:15:57;;;;;;;21.08;9.50;;;7.00;99.90;;;;;;21171071;28;20032;-80
2022/11/15 01:26:17;;;;;;;16.52;8.95;;;6.90;99.90;;;;;;21187297;28;20031;-78
2022/11/15 01:36:36;;;;;;;16.10;9.18;;;7.00;99.90;;;;;;21128456;28;20040;-80
2022/11/15 01:46:57;;;;;;;41.13;12.50;;;7.00;99.90;;;;;;21103647;28;20035;-80
2022/11/15 01:57:16;;;;;;;18.73;10.45;;;7.00;99.90;;;;;;21101326;28;20032;-79
2022/11/15 02:07:36;;;;;;;17.20;9.98;;;7.00;99.90;;;;;;21102993;28;20044;-79
2022/11/15 02:18:07;;;;;;;17.08;9.55;;;7.00;99.90;;;;;;21100217;28;20047;-80
2022/11/15 02:28:41;;;;;;;17.15;9.20;;;7.00;99.90;;;;;;21099807;28;20040;-80
2022/11/15 02:39:19;;;;;;;15.75;9.15;;;7.00;99.90;;;;;;21097304;28;20434;-80
2022/11/15 02:49:43;;;;;;;13.75;8.80;;;7.00;99.90;;;;;;21096022;28;20040;-80
2022/11/15 03:00:12;;;;;;;15.38;7.90;;;7.00;99.90;;;;;;21098562;28;20036;-79
2022/11/15 03:10:35;;;;;;;15.32;8.93;;;7.00;99.90;;;;;;21096211;28;20040;-80
2022/11/15 03:20:57;;;;;;;22.83;10.60;;;7.00;99.90;;;;;;21094847;28;20062;-80
2022/11/15 03:42:25;;;;;;;17.40;10.23;;;6.90;99.90;;;;;;21093069;28;20486;-78
2022/11/15 03:52:47;;;;;;;24.25;12.48;;;6.90;99.90;;;;;;21070002;28;20483;-79
2022/11/15 04:03:07;;;;;;;28.77;14.10;;;6.90;99.90;;;;;;21091510;28;20067;-79
2022/11/15 04:13:26;;;;;;;30.92;14.48;;;6.90;99.90;;;;;;21089592;28;20039;-79
2022/11/15 04:34:13;;;;;;;23.10;11.02;;;7.20;99.90;;;;;;21090152;28;20538;-78
2022/11/15 04:44:33;;;;;;;24.90;11.82;;;7.00;99.90;;;;;;21089424;28;20464;-80
2022/11/15 04:54:52;;;;;;;25.15;11.40;;;6.90;99.90;;;;;;21098199;28;20036;-79
2022/11/15 05:05:11;;;;;;;22.20;11.02;;;6.90;99.90;;;;;;21106200;28;20032;-79
2022/11/15 05:15:30;;;;;;;20.38;11.05;;;6.80;99.90;;;;;;21107534;28;20044;-79
2022/11/15 05:25:49;;;;;;;25.13;12.13;;;6.80;99.90;;;;;;21185519;28;20043;-79
2022/11/15 05:36:18;;;;;;;26.58;12.77;;;6.80;99.90;;;;;;21185346;28;20036;-80
2022/11/15 05:46:40;;;;;;;30.55;12.63;;;6.90;99.90;;;;;;21184403;28;20036;-78
2022/11/15 05:56:59;;;;;;;45.97;13.95;;;6.90;99.90;;;;;;21185034;28;20444;-79
2022/11/15 06:07:19;;;;;;;43.72;14.63;;;6.90;99.90;;;;;;21181111;28;20122;-80
2022/11/15 06:17:38;;;;;;;62.03;17.15;;;6.90;99.90;;;;;;21169536;28;20422;-79
2022/11/15 06:27:59;;;;;;;37.28;15.18;;;6.90;99.90;;;;;;21169521;28;20040;-79
2022/11/15 06:38:18;;;;;;;53.28;16.02;;;6.90;99.90;;;;;;21157811;28;20035;-79
2022/11/15 06:48:37;;;;;;;50.05;15.98;;;7.00;99.90;;;;;;21138909;28;20043;-79
2022/11/15 06:58:57;;;;;;;28.30;14.25;;;6.90;99.90;;;;;;21092654;28;20036;-79
2022/11/15 07:09:16;;;;;;;29.30;13.07;;;6.80;99.90;;;;;;21095321;28;20122;-79
2022/11/15 07:19:35;;;;;;;257.92;31.02;;;6.70;99.90;;;;;;21169862;28;20067;-79
2022/11/15 07:29:54;;;;;;;121.50;23.38;;;6.70;99.90;;;;;;21163951;28;20036;-79
2022/11/15 07:40:14;;;;;;;66.75;23.95;;;6.80;99.90;;;;;;21174568;28;20509;-79
2022/11/15 07:50:33;;;;;;;60.60;18.65;;;6.80;99.90;;;;;;21174745;28;20126;-79
2022/11/15 08:00:52;;;;;;;49.70;18.00;;;6.90;99.90;;;;;;21177352;28;20036;-79
2022/11/15 08:11:11;;;;;;;42.97;15.13;;;6.90;99.90;;;;;;21175972;28;20039;-80
2022/11/15 08:21:30;;;;;;;29.50;13.43;;;6.90;99.90;;;;;;21174105;28;20036;-79
2022/11/15 08:31:49;;;;;;;32.90;14.43;;;7.20;99.90;;;;;;21172391;28;20040;-81
2022/11/15 08:42:09;;;;;;;26.13;12.23;;;7.50;99.90;;;;;;21173920;28;20401;-80
2022/11/15 08:52:28;;;;;;;17.92;11.43;;;7.60;99.90;;;;;;21174482;28;20405;-81
2022/11/15 09:02:47;;;;;;;19.55;10.25;;;7.70;99.90;;;;;;21173697;28;20031;-81
2022/11/15 09:13:06;;;;;;;16.13;9.82;;;7.70;99.90;;;;;;21174625;28;20036;-81
2022/11/15 09:23:26;;;;;;;17.90;9.68;;;7.90;99.90;;;;;;21175215;28;20074;-80
2022/11/15 09:33:46;;;;;;;18.50;9.90;;;7.90;99.90;;;;;;21172033;28;20032;-80
2022/11/15 09:44:11;;;;;;;16.73;9.02;;;7.90;99.90;;;;;;21183509;28;20043;-80
2022/11/15 09:54:33;;;;;;;21.60;9.65;;;7.80;99.90;;;;;;21186146;28;20032;-80
2022/11/15 10:04:37;;;;;;;17.13;9.30;;;7.90;99.90;;;;;;21186550;28;20123;-80
2022/11/15 10:14:38;;;;;;;18.48;10.18;;;8.00;99.90;;;;;;21185702;28;20047;-80
2022/11/15 10:24:43;;;;;;;20.35;10.05;;;7.90;99.90;;;;;;21182226;28;20079;-79
2022/11/15 10:34:45;;;;;;;18.92;10.80;;;8.10;99.90;;;;;;21182850;28;20092;-80
2022/11/15 10:44:46;;;;;;;21.60;11.02;;;8.00;99.90;;;;;;21163473;28;20062;-80
2022/11/15 10:54:52;;;;;;;27.53;12.47;;;8.20;99.90;;;;;;21181008;28;20042;-79
2022/11/15 11:04:52;;;;;;;24.85;13.15;;;8.40;99.90;;;;;;21180184;28;20031;-80
2022/11/15 11:14:53;;;;;;;28.03;14.37;;;8.70;99.90;;;;;;21181201;28;20122;-80
2022/11/15 11:25:10;;;;;;;30.77;15.30;;;8.80;99.90;;;;;;21178429;28;20043;-80
2022/11/15 11:35:13;;;;;;;26.20;13.55;;;8.80;99.90;;;;;;21179803;28;20034;-80
2022/11/15 11:45:36;;;;;;;24.38;13.45;;;9.10;99.90;;;;;;21179315;28;20034;-80
2022/11/15 11:55:42;;;;;;;17.92;10.40;;;9.50;99.90;;;;;;21178314;28;20118;-81
2022/11/15 12:06:05;;;;;;;31.75;13.85;;;9.50;99.90;;;;;;21143894;28;20122;-80
2022/11/15 12:16:14;;;;;;;17.17;10.27;;;10.10;99.90;;;;;;21174358;28;20509;-81
2022/11/15 12:26:24;;;;;;;19.02;11.88;;;9.80;99.90;;;;;;21175972;28;20494;-80
2022/11/15 12:36:29;;;;;;;;;;;9.70;99.90;;;;;;21177060;28;20044;-80
2022/11/15 12:46:29;;;;;;;20.42;12.00;;;9.70;99.90;;;;;;21172608;28;19912;-80
2022/11/15 12:56:31;;;;;;;18.00;10.53;;;10.00;99.90;;;;;;21174275;28;20402;-80
2022/11/15 13:06:44;;;;;;;26.05;11.07;;;9.90;99.90;;;;;;21169141;28;20110;-80
2022/11/15 13:16:46;;;;;;;22.13;12.40;;;9.70;99.90;;;;;;21163215;28;20394;-80
2022/11/15 13:26:47;;;;;;;25.08;13.23;;;9.50;99.90;;;;;;21179450;28;20038;-79
2022/11/15 13:36:48;;;;;;;26.50;13.30;;;9.60;99.90;;;;;;21182210;28;20371;-79
2022/11/15 13:46:59;;;;;;;28.37;13.23;;;9.70;99.90;;;;;;21184761;28;20039;-80
2022/11/15 13:57:05;;;;;;;26.60;15.02;;;9.70;99.90;;;;;;21188233;28;20030;-79
2022/11/15 14:07:19;;;;;;;24.25;14.65;;;9.60;99.90;;;;;;21183878;28;20027;-80
2022/11/15 14:17:29;;;;;;;28.30;16.50;;;9.60;99.90;;;;;;21183111;28;20032;-80
2022/11/15 14:27:30;;;;;;;26.17;14.32;;;9.60;99.90;;;;;;21183716;28;20114;-80
2022/11/15 14:37:34;;;;;;;28.57;15.37;;;9.50;99.90;;;;;;21186148;28;20024;-79
2022/11/15 14:47:35;;;;;;;26.00;15.23;;;9.50;99.90;;;;;;21179320;28;20035;-79
2022/11/15 14:57:35;;;;;;;29.43;15.10;;;9.40;99.90;;;;;;21132977;28;20425;-81
2022/11/15 15:07:36;;;;;;;25.90;14.87;;;9.40;99.90;;;;;;21183611;28;20023;-80
2022/11/15 15:17:37;;;;;;;32.53;15.30;;;9.40;99.90;;;;;;21182164;28;20044;-79
2022/11/15 15:27:38;;;;;;;26.67;14.40;;;9.40;99.90;;;;;;21182180;27;20028;-79
2022/11/15 15:37:39;;;;;;;28.37;15.07;;;9.30;99.90;;;;;;21179821;28;20032;-79
2022/11/15 15:47:40;;;;;;;;;;;9.30;99.90;;;;;;21181123;28;20490;-80
2022/11/15 15:57:40;;;;;;;31.50;16.10;;;9.30;99.90;;;;;;21162338;28;20453;-80
2022/11/15 16:07:43;;;;;;;29.27;15.67;;;9.30;99.90;;;;;;21177058;28;20282;-79
2022/11/15 16:17:58;;;;;;;27.55;14.95;;;9.30;99.90;;;;;;21179638;27;20031;-78
2022/11/15 16:27:58;;;;;;;35.30;17.40;;;9.40;99.90;;;;;;21170695;28;20029;-78
2022/11/15 16:37:59;;;;;;;33.43;15.87;;;9.40;99.90;;;;;;21179549;27;20027;-79
2022/11/15 16:48:00;;;;;;;40.50;16.40;;;9.30;99.90;;;;;;21190894;27;20039;-80
2022/11/15 16:58:01;;;;;;;29.67;15.73;;;9.30;99.90;;;;;;21190691;28;20101;-78
2022/11/15 17:08:02;;;;;;;29.00;14.70;;;9.30;99.90;;;;;;21186060;28;20027;-79
2022/11/15 17:18:03;;;;;;;32.20;15.30;;;9.30;99.90;;;;;;21185371;28;20032;-79
2022/11/15 17:28:04;;;;;;;53.67;26.97;;;9.30;99.90;;;;;;21188149;28;20039;-81
2022/11/15 17:38:04;;;;;;;23.90;12.90;;;9.20;99.90;;;;;;21186420;28;20028;-78
2022/11/15 17:48:05;;;;;;;23.70;13.27;;;9.20;99.90;;;;;;21112302;28;20089;-79
2022/11/15 17:58:07;;;;;;;26.93;14.00;;;9.30;99.90;;;;;;21100296;28;20514;-81
2022/11/15 18:08:09;;;;;;;25.30;12.95;;;9.30;99.90;;;;;;21122313;28;20504;-80
2022/11/15 18:18:09;;;;;;;21.92;11.70;;;9.20;99.90;;;;;;21171948;28;20041;-80
2022/11/15 18:28:10;;;;;;;22.33;11.77;;;9.20;99.90;;;;;;21173555;28;20032;-81
2022/11/15 18:38:11;;;;;;;22.17;12.67;;;9.10;99.90;;;;;;21177913;28;20521;-80
2022/11/15 18:48:12;;;;;;;22.97;11.80;;;9.10;99.90;;;;;;21124501;28;20032;-80
2022/11/15 18:58:12;;;;;;;28.87;12.70;;;9.10;99.90;;;;;;21091893;28;20077;-79
2022/11/15 19:08:13;;;;;;;23.73;12.13;;;9.00;99.90;;;;;;21108688;28;20563;-80
2022/11/15 19:18:14;;;;;;;22.00;11.70;;;9.10;99.90;;;;;;21151579;27;20189;-79
2022/11/15 19:28:15;;;;;;;20.95;11.85;;;9.00;99.90;;;;;;21207953;27;20397;-80
2022/11/15 19:38:16;;;;;;;19.53;10.37;;;9.00;99.90;;;;;;21181881;27;20034;-82
2022/11/15 19:48:17;;;;;;;25.00;12.27;;;9.00;99.90;;;;;;21204790;27;20137;-80
2022/11/15 19:58:17;;;;;;;19.57;11.17;;;9.00;99.90;;;;;;21212434;27;20020;-80
2022/11/15 20:08:18;;;;;;;22.13;11.53;;;9.00;99.90;;;;;;21207238;27;20023;-80
2022/11/15 20:18:20;;;;;;;18.77;10.40;;;8.90;99.90;;;;;;21197697;27;20027;-80
2022/11/15 20:28:23;;;;;;;17.48;10.15;;;8.90;99.90;;;;;;21220100;27;20027;-81
2022/11/15 20:38:24;;;;;;;37.40;17.45;;;8.80;99.90;;;;;;21152975;27;20048;-82
2022/11/15 20:48:26;;;;;;;25.33;13.10;;;8.80;99.90;;;;;;21164264;28;20409;-80
2022/11/15 20:58:28;;;;;;;26.92;11.00;;;8.70;99.90;;;;;;21162402;28;20477;-80
2022/11/15 21:12:09;;;;;;;17.55;10.88;;;8.60;99.90;;;;;;21164524;28;20055;-81
2022/11/15 21:18:53;;;;;;;17.50;9.35;;;8.70;99.90;;;;;;21138033;28;20116;-82
2022/11/15 21:28:54;;;;;;;31.10;14.17;;;8.80;99.90;;;;;;21087753;28;20044;-81
2022/11/15 21:38:55;;;;;;;27.10;14.43;;;8.80;99.90;;;;;;21151677;28;20020;-80
2022/11/15 21:48:56;;;;;;;40.60;19.57;;;8.70;99.90;;;;;;21137850;28;20161;-80
2022/11/15 21:58:57;;;;;;;28.25;12.10;;;8.80;99.90;;;;;;21138506;28;20032;-81
2022/11/15 22:08:58;;;;;;;20.27;11.30;;;8.70;99.90;;;;;;21136264;28;20432;-80
2022/11/15 22:18:59;;;;;;;17.93;11.37;;;8.70;99.90;;;;;;21139207;28;20051;-82
2022/11/15 22:29:00;;;;;;;19.67;11.13;;;8.70;99.90;;;;;;21127056;28;20040;-80
2022/11/15 22:39:01;;;;;;;17.90;8.70;;;8.70;99.90;;;;;;21108949;28;20498;-79
2022/11/15 22:49:01;;;;;;;18.63;10.13;;;8.80;99.90;;;;;;21168543;28;20330;-81
2022/11/15 22:59:02;;;;;;;21.93;10.30;;;8.80;99.90;;;;;;21154061;28;20036;-81
2022/11/15 23:09:03;;;;;;;19.67;10.50;;;8.70;99.90;;;;;;21152115;28;20497;-81
2022/11/15 23:19:09;;;;;;;20.03;10.03;;;8.70;99.90;;;;;;21164896;28;20084;-80
2022/11/15 23:29:13;;;;;;;12.45;7.35;;;8.70;99.90;;;;;;21166859;28;20031;-79
2022/11/15 23:39:14;;;;;;;16.73;8.20;;;8.70;99.90;;;;;;21181253;28;20084;-80
2022/11/15 23:49:15;;;;;;;17.83;9.00;;;8.80;99.90;;;;;;21156141;28;20756;-80
2022/11/15 23:59:16;;;;;;;18.17;9.70;;;8.80;99.90;;;;;;21170535;28;20039;-79
